Time;durP1;ratioP1;P1;durP2;ratioP2;P2;SDS_P1;SDS_P2;PMS_P1;PMS_P2;Temp;Humidity;BMP_temperature;BMP_pressure;BME280_temperature;BME280_humidity;BME280_pressure;Samples;Min_cycle;Max_cycle;Signal;HPM_P1;HPM_P2
2023/05/04 00:00:35;;;;;;;16.52;7.45;;;9.10;98.20;;;;;;4914791;28;20629;-69
2023/05/04 00:03:02;;;;;;;10.13;5.95;;;9.10;98.60;;;;;;4946927;28;20038;-68
2023/05/04 00:05:28;;;;;;;8.05;5.55;;;9.10;98.80;;;;;;4952616;28;20719;-70
2023/05/04 00:07:55;;;;;;;7.63;5.70;;;9.00;99.10;;;;;;4959593;28;20030;-69
2023/05/04 00:10:21;;;;;;;8.40;5.82;;;9.00;99.20;;;;;;4956838;28;20393;-69
2023/05/04 00:12:47;;;;;;;7.95;6.53;;;9.00;99.40;;;;;;4969052;28;20046;-69
2023/05/04 00:15:14;;;;;;;6.70;6.05;;;9.00;99.70;;;;;;4950265;28;20034;-69
2023/05/04 00:17:40;;;;;;;15.75;7.30;;;9.00;99.90;;;;;;4949708;28;20030;-69
2023/05/04 00:20:07;;;;;;;9.23;7.15;;;9.00;99.90;;;;;;4949749;28;20049;-69
2023/05/04 00:22:33;;;;;;;6.70;5.10;;;8.90;99.90;;;;;;4950625;28;20026;-69
2023/05/04 00:24:59;;;;;;;8.98;5.35;;;8.90;99.90;;;;;;4947144;28;20170;-70
2023/05/04 00:27:26;;;;;;;10.18;7.20;;;8.90;99.90;;;;;;4952403;28;20049;-70
2023/05/04 00:29:52;;;;;;;7.28;6.50;;;8.80;99.90;;;;;;4942276;28;20038;-69
2023/05/04 00:32:18;;;;;;;9.32;6.70;;;8.90;99.90;;;;;;4942334;28;20378;-69
2023/05/04 00:34:45;;;;;;;10.65;7.60;;;8.80;99.90;;;;;;4965761;28;20428;-69
2023/05/04 00:37:11;;;;;;;9.40;7.07;;;8.80;99.90;;;;;;4947943;28;20408;-68
2023/05/04 00:39:37;;;;;;;10.57;6.25;;;8.80;99.90;;;;;;4947374;28;20046;-69
2023/05/04 00:42:04;;;;;;;10.48;7.10;;;8.80;99.90;;;;;;4932082;28;20035;-70
2023/05/04 00:44:30;;;;;;;9.88;6.07;;;8.80;99.90;;;;;;4946072;28;20605;-69
2023/05/04 00:46:57;;;;;;;9.50;6.60;;;8.80;99.90;;;;;;4949469;28;20038;-69
2023/05/04 00:49:24;;;;;;;11.98;7.32;;;8.70;99.90;;;;;;4919308;28;20397;-69
2023/05/04 00:51:52;;;;;;;12.38;7.53;;;8.70;99.90;;;;;;4951546;28;20055;-69
2023/05/04 00:54:19;;;;;;;13.32;7.53;;;8.70;99.90;;;;;;4936497;28;21255;-69
2023/05/04 00:56:46;;;;;;;10.82;6.20;;;8.70;99.90;;;;;;4955110;28;20061;-70
2023/05/04 00:59:13;;;;;;;10.93;6.80;;;8.70;99.90;;;;;;4950984;28;20041;-69
2023/05/04 01:01:40;;;;;;;9.10;5.85;;;8.70;99.90;;;;;;4949158;28;20038;-69
2023/05/04 01:04:07;;;;;;;11.45;6.60;;;8.60;99.90;;;;;;4945711;28;20042;-69
2023/05/04 01:06:59;;;;;;;7.05;5.20;;;8.70;99.90;;;;;;4949044;28;20035;-69
2023/05/04 01:09:37;;;;;;;9.70;7.05;;;8.60;99.90;;;;;;4951788;28;23255;-69
2023/05/04 01:12:07;;;;;;;9.02;5.80;;;8.60;99.90;;;;;;4952807;28;20081;-70
2023/05/04 01:14:34;;;;;;;8.43;5.30;;;8.60;99.90;;;;;;4952457;28;23323;-69
2023/05/04 01:17:04;;;;;;;11.52;6.72;;;8.60;99.90;;;;;;4960772;28;21702;-70
2023/05/04 01:19:31;;;;;;;8.18;6.18;;;8.60;99.90;;;;;;4962341;28;20212;-69
2023/05/04 01:21:57;;;;;;;7.90;5.75;;;8.60;99.90;;;;;;4972846;28;20352;-69
2023/05/04 01:24:25;;;;;;;9.05;5.35;;;8.50;99.90;;;;;;4951960;28;20041;-69
2023/05/04 01:27:21;;;;;;;11.00;5.82;;;8.50;99.90;;;;;;4954304;28;20026;-69
2023/05/04 01:30:08;;;;;;;9.20;6.18;;;8.50;99.90;;;;;;4950059;28;20058;-70
2023/05/04 01:32:36;;;;;;;11.65;6.15;;;8.50;99.90;;;;;;4955556;28;20035;-69
2023/05/04 01:35:02;;;;;;;7.90;5.95;;;8.50;99.90;;;;;;4952176;28;20065;-69
2023/05/04 01:37:29;;;;;;;7.88;5.68;;;8.40;99.90;;;;;;4943233;28;20493;-69
2023/05/04 01:39:56;;;;;;;7.90;6.15;;;8.40;99.90;;;;;;4960536;28;20053;-70
2023/05/04 01:42:23;;;;;;;8.85;6.32;;;8.40;99.90;;;;;;4958927;28;20049;-69
2023/05/04 01:44:50;;;;;;;12.07;6.70;;;8.30;99.90;;;;;;4954715;28;20042;-69
2023/05/04 01:47:17;;;;;;;10.55;6.63;;;8.30;99.90;;;;;;4937397;28;20038;-69
2023/05/04 01:49:43;;;;;;;8.50;5.72;;;8.30;99.90;;;;;;4951691;28;20670;-69
2023/05/04 01:52:09;;;;;;;8.65;4.63;;;8.20;99.90;;;;;;4953625;28;20266;-69
2023/05/04 01:54:35;;;;;;;9.07;6.28;;;8.20;99.90;;;;;;4951547;28;20436;-70
2023/05/04 01:57:03;;;;;;;8.27;6.03;;;8.20;99.90;;;;;;4954808;28;20046;-69
2023/05/04 01:59:29;;;;;;;8.98;6.40;;;8.10;99.90;;;;;;4954495;28;20040;-69
2023/05/04 02:01:56;;;;;;;10.18;5.43;;;8.10;99.90;;;;;;4955481;28;20045;-69
2023/05/04 02:04:22;;;;;;;9.18;5.80;;;8.00;99.90;;;;;;4956339;28;20034;-70
2023/05/04 02:06:48;;;;;;;9.27;5.40;;;8.10;99.90;;;;;;4962047;28;20030;-69
2023/05/04 02:09:17;;;;;;;7.65;4.25;;;8.00;99.90;;;;;;4953512;28;20034;-70
2023/05/04 02:11:44;;;;;;;7.38;5.90;;;8.00;99.90;;;;;;4949399;28;20057;-69
2023/05/04 02:14:10;;;;;;;6.95;5.80;;;8.00;99.90;;;;;;4965245;28;20042;-69
2023/05/04 02:16:37;;;;;;;8.68;5.55;;;8.00;99.90;;;;;;4953297;28;20038;-70
2023/05/04 02:19:03;;;;;;;7.38;5.90;;;8.00;99.90;;;;;;4939335;28;20569;-69
2023/05/04 02:21:30;;;;;;;6.32;4.32;;;8.00;99.90;;;;;;4949519;28;20058;-69
2023/05/04 02:23:56;;;;;;;7.20;4.13;;;7.90;99.90;;;;;;4953591;28;20038;-70
2023/05/04 02:26:24;;;;;;;13.68;6.40;;;7.90;99.90;;;;;;4959309;28;20926;-69
2023/05/04 02:28:50;;;;;;;9.32;5.72;;;7.90;99.90;;;;;;4961156;28;20041;-69
2023/05/04 02:31:17;;;;;;;8.55;4.78;;;7.90;99.90;;;;;;4950520;28;20034;-69
2023/05/04 02:33:43;;;;;;;9.85;5.85;;;7.90;99.90;;;;;;4966531;28;20846;-70
2023/05/04 02:36:09;;;;;;;10.35;5.78;;;7.90;99.90;;;;;;4954030;28;21548;-69
2023/05/04 02:38:35;;;;;;;5.80;4.57;;;7.90;99.90;;;;;;4955169;28;20034;-69
2023/05/04 02:41:03;;;;;;;9.57;6.50;;;7.90;99.90;;;;;;4950822;28;20039;-69
2023/05/04 02:43:29;;;;;;;11.02;5.55;;;7.90;99.90;;;;;;4950905;28;20049;-69
2023/05/04 02:45:55;;;;;;;8.30;5.40;;;7.90;99.90;;;;;;4975796;28;20029;-69
2023/05/04 02:48:23;;;;;;;8.20;4.43;;;7.90;99.90;;;;;;4960087;28;20029;-69
2023/05/04 02:50:52;;;;;;;8.80;5.00;;;7.80;99.90;;;;;;4960592;28;20030;-69
2023/05/04 02:53:18;;;;;;;7.80;5.00;;;7.80;99.90;;;;;;4954082;28;20038;-70
2023/05/04 02:55:45;;;;;;;7.63;4.95;;;7.80;99.90;;;;;;4936784;28;20049;-69
2023/05/04 02:58:11;;;;;;;7.65;5.40;;;7.80;99.90;;;;;;4969118;28;20049;-68
2023/05/04 03:00:37;;;;;;;9.07;6.97;;;7.80;99.90;;;;;;4947737;28;20043;-69
2023/05/04 03:03:04;;;;;;;7.28;4.90;;;7.80;99.90;;;;;;4947292;28;20031;-69
2023/05/04 03:05:30;;;;;;;8.57;5.13;;;7.80;99.90;;;;;;4935684;28;20049;-70
2023/05/04 03:07:56;;;;;;;9.15;5.65;;;7.80;99.90;;;;;;4952829;28;20042;-69
2023/05/04 03:10:23;;;;;;;7.53;4.88;;;7.80;99.90;;;;;;4953603;28;20069;-69
2023/05/04 03:12:49;;;;;;;9.90;5.57;;;7.80;99.90;;;;;;4956981;28;20359;-70
2023/05/04 03:15:15;;;;;;;8.07;6.10;;;7.80;99.90;;;;;;4956397;28;20425;-70
2023/05/04 03:17:42;;;;;;;7.97;5.43;;;7.80;99.90;;;;;;4937432;28;20042;-69
2023/05/04 03:20:09;;;;;;;12.63;6.47;;;7.80;99.90;;;;;;4951888;28;20729;-70
2023/05/04 03:22:36;;;;;;;8.88;5.10;;;7.80;99.90;;;;;;4951323;28;20374;-69
2023/05/04 03:25:02;;;;;;;11.68;6.38;;;7.80;99.90;;;;;;4950334;28;20729;-69
2023/05/04 03:27:30;;;;;;;8.35;5.35;;;7.80;99.90;;;;;;4955278;28;20030;-69
2023/05/04 03:29:56;;;;;;;7.47;5.60;;;7.80;99.90;;;;;;4951065;28;20504;-69
2023/05/04 03:32:25;;;;;;;9.55;6.50;;;7.70;99.90;;;;;;4952060;28;20030;-69
2023/05/04 03:34:51;;;;;;;8.93;5.50;;;7.70;99.90;;;;;;4959219;28;20023;-69
2023/05/04 03:37:19;;;;;;;8.75;5.75;;;7.70;99.90;;;;;;4960637;28;20504;-69
2023/05/04 03:39:45;;;;;;;9.95;6.07;;;7.70;99.90;;;;;;4950848;28;20037;-69
2023/05/04 03:42:11;;;;;;;9.30;5.75;;;7.70;99.90;;;;;;4949811;28;20507;-68
2023/05/04 03:44:38;;;;;;;10.18;5.70;;;7.70;99.90;;;;;;4963975;28;20473;-69
2023/05/04 03:47:04;;;;;;;9.23;6.70;;;7.70;99.90;;;;;;4934464;28;20393;-69
2023/05/04 03:49:31;;;;;;;8.15;5.35;;;7.60;99.90;;;;;;4950851;28;20603;-69
2023/05/04 03:51:57;;;;;;;10.82;6.32;;;7.60;99.90;;;;;;4935536;28;20042;-69
2023/05/04 03:54:25;;;;;;;9.95;6.47;;;7.60;99.90;;;;;;4949608;28;20041;-70
2023/05/04 03:56:53;;;;;;;7.50;6.40;;;7.50;99.90;;;;;;4942247;28;20034;-70
2023/05/04 03:59:19;;;;;;;9.27;6.10;;;7.50;99.90;;;;;;4962677;28;20056;-68
2023/05/04 04:01:46;;;;;;;13.02;6.15;;;7.50;99.90;;;;;;4951809;28;20045;-69
2023/05/04 04:04:12;;;;;;;10.23;7.22;;;7.50;99.90;;;;;;4948773;28;20034;-68
2023/05/04 04:06:38;;;;;;;9.63;6.03;;;7.50;99.90;;;;;;4953092;28;20034;-69
2023/05/04 04:09:05;;;;;;;10.38;6.20;;;7.50;99.90;;;;;;4970999;28;21631;-70
2023/05/04 04:11:31;;;;;;;9.65;6.53;;;7.40;99.90;;;;;;4948070;28;20054;-69
2023/05/04 04:13:57;;;;;;;7.50;6.50;;;7.40;99.90;;;;;;4947495;28;20462;-69
2023/05/04 04:16:24;;;;;;;10.70;7.18;;;7.40;99.90;;;;;;4971562;28;20313;-69
2023/05/04 04:18:50;;;;;;;13.05;7.32;;;7.40;99.90;;;;;;4976982;28;20026;-70
2023/05/04 04:21:17;;;;;;;11.40;6.03;;;7.40;99.90;;;;;;4957693;28;20038;-69
2023/05/04 04:23:43;;;;;;;7.40;4.80;;;7.40;99.90;;;;;;4971687;28;20030;-68
2023/05/04 04:26:09;;;;;;;11.23;7.55;;;7.40;99.90;;;;;;4951662;28;20390;-69
2023/05/04 04:28:36;;;;;;;9.90;5.10;;;7.40;99.90;;;;;;4953378;28;20053;-69
2023/05/04 04:31:02;;;;;;;12.32;7.93;;;7.40;99.90;;;;;;4950120;28;20033;-69
2023/05/04 04:33:28;;;;;;;8.90;6.50;;;7.40;99.90;;;;;;4949913;28;23702;-69
2023/05/04 04:35:55;;;;;;;10.25;7.45;;;7.40;99.90;;;;;;4934043;28;20035;-69
2023/05/04 04:38:21;;;;;;;10.18;6.60;;;7.50;99.90;;;;;;4972399;28;21243;-69
2023/05/04 04:40:47;;;;;;;15.40;8.27;;;7.50;99.90;;;;;;4955367;28;20046;-69
2023/05/04 04:43:14;;;;;;;11.18;8.13;;;7.50;99.90;;;;;;4972782;28;20045;-69
2023/05/04 04:45:40;;;;;;;11.75;6.80;;;7.60;99.90;;;;;;4974017;28;20041;-70
2023/05/04 04:48:06;;;;;;;10.65;7.07;;;7.60;99.90;;;;;;4950502;28;20448;-69
2023/05/04 04:50:32;;;;;;;7.68;5.85;;;7.60;99.90;;;;;;4947123;28;20465;-70
2023/05/04 04:52:59;;;;;;;10.32;7.38;;;7.70;99.90;;;;;;4949921;28;20046;-68
2023/05/04 04:55:25;;;;;;;8.65;6.47;;;7.80;99.90;;;;;;4951806;28;20038;-68
2023/05/04 04:57:51;;;;;;;9.35;7.00;;;7.80;99.90;;;;;;4953842;28;21079;-67
2023/05/04 05:00:18;;;;;;;8.90;6.72;;;7.90;99.90;;;;;;4952645;28;21674;-67
2023/05/04 05:02:44;;;;;;;13.07;7.15;;;8.00;99.90;;;;;;4956174;28;20042;-67
2023/05/04 05:05:11;;;;;;;12.82;8.38;;;8.10;99.90;;;;;;4957639;28;20039;-67
2023/05/04 05:07:38;;;;;;;11.07;6.65;;;8.20;99.90;;;;;;4958639;28;20030;-67
2023/05/04 05:10:04;;;;;;;11.35;7.00;;;8.20;99.90;;;;;;4950062;28;20134;-68
2023/05/04 05:12:31;;;;;;;12.23;8.05;;;8.30;99.90;;;;;;4951519;28;20129;-68
2023/05/04 05:14:57;;;;;;;10.85;6.63;;;8.40;99.90;;;;;;4949638;28;20398;-69
2023/05/04 05:17:24;;;;;;;10.07;7.25;;;8.40;99.90;;;;;;4952594;28;20042;-68
2023/05/04 05:19:51;;;;;;;12.50;7.97;;;8.50;99.90;;;;;;4950099;28;20053;-68
2023/05/04 05:22:17;;;;;;;8.63;6.20;;;8.50;99.90;;;;;;4952892;28;20038;-69
2023/05/04 05:24:43;;;;;;;12.38;6.45;;;8.50;99.90;;;;;;4957078;28;20514;-69
2023/05/04 05:27:10;;;;;;;9.77;6.03;;;8.60;99.90;;;;;;4959880;28;20477;-69
2023/05/04 05:29:37;;;;;;;8.10;5.95;;;8.60;99.90;;;;;;4955055;28;20361;-68
2023/05/04 05:32:03;;;;;;;10.15;7.05;;;8.70;99.90;;;;;;4949912;28;20033;-69
2023/05/04 05:34:30;;;;;;;10.55;5.47;;;8.70;99.90;;;;;;4948311;28;20034;-69
2023/05/04 05:36:57;;;;;;;5.15;4.50;;;8.80;99.90;;;;;;4951396;28;20058;-68
2023/05/04 05:39:23;;;;;;;9.38;4.78;;;9.00;99.90;;;;;;4934308;28;20037;-68
2023/05/04 05:41:49;;;;;;;13.80;7.10;;;9.10;99.90;;;;;;4948345;28;21151;-68
2023/05/04 05:44:15;;;;;;;10.18;5.78;;;9.20;99.90;;;;;;4934564;28;20049;-69
2023/05/04 05:46:42;;;;;;;7.03;4.65;;;9.30;99.90;;;;;;4958057;28;20374;-70
2023/05/04 05:49:08;;;;;;;5.95;4.88;;;9.40;99.90;;;;;;4959499;28;20037;-70
2023/05/04 05:51:34;;;;;;;9.57;5.25;;;9.50;99.90;;;;;;4968782;28;20331;-69
2023/05/04 05:54:01;;;;;;;9.27;5.78;;;9.60;99.90;;;;;;4947641;28;20034;-69
2023/05/04 05:56:27;;;;;;;10.80;6.60;;;9.70;99.90;;;;;;4955688;28;20034;-69
2023/05/04 05:58:53;;;;;;;10.77;6.05;;;9.80;99.90;;;;;;4955924;28;20045;-70
2023/05/04 06:01:19;;;;;;;10.82;6.07;;;9.80;99.90;;;;;;4954159;28;20030;-69
2023/05/04 06:03:46;;;;;;;8.27;5.25;;;10.00;99.90;;;;;;4952350;28;20021;-69
2023/05/04 06:06:12;;;;;;;11.98;8.50;;;10.10;99.90;;;;;;4955726;28;20038;-69
2023/05/04 06:08:38;;;;;;;9.80;5.75;;;10.20;99.90;;;;;;4962127;28;20081;-69
2023/05/04 06:11:05;;;;;;;8.40;5.80;;;10.30;99.90;;;;;;4958247;28;20054;-70
2023/05/04 06:13:31;;;;;;;10.48;6.75;;;10.40;99.90;;;;;;4972738;28;20030;-69
2023/05/04 06:15:57;;;;;;;9.68;5.00;;;10.40;99.90;;;;;;4954758;28;20049;-69
2023/05/04 06:18:24;;;;;;;7.75;5.07;;;10.50;99.90;;;;;;4953896;28;20046;-70
2023/05/04 06:20:57;;;;;;;8.68;5.60;;;10.60;99.90;;;;;;4949876;28;20052;-69
2023/05/04 06:23:25;;;;;;;7.60;4.88;;;10.70;99.90;;;;;;4950173;28;20034;-70
2023/05/04 06:25:51;;;;;;;9.73;4.95;;;10.90;99.90;;;;;;4969201;28;20049;-69
2023/05/04 06:28:17;;;;;;;9.57;6.15;;;11.10;99.90;;;;;;4952579;28;20057;-69
2023/05/04 06:30:43;;;;;;;9.35;6.78;;;11.30;99.90;;;;;;4954809;28;20041;-69
2023/05/04 06:33:10;;;;;;;6.85;4.25;;;11.50;99.90;;;;;;4954484;28;20030;-69
2023/05/04 06:35:36;;;;;;;8.02;5.53;;;11.60;99.90;;;;;;4957431;28;20534;-69
2023/05/04 06:38:03;;;;;;;7.22;5.80;;;11.80;99.90;;;;;;4937367;28;20033;-69
2023/05/04 06:40:29;;;;;;;6.32;4.30;;;12.00;99.90;;;;;;4947276;28;20046;-69
2023/05/04 06:42:55;;;;;;;5.53;4.18;;;12.10;99.90;;;;;;4947092;28;21503;-69
2023/05/04 06:45:22;;;;;;;9.30;4.95;;;12.30;99.90;;;;;;4951928;28;20034;-69
2023/05/04 06:47:48;;;;;;;6.95;5.32;;;12.50;99.90;;;;;;4949200;28;20039;-69
2023/05/04 06:50:15;;;;;;;5.43;3.85;;;12.70;99.90;;;;;;4945420;28;20034;-69
2023/05/04 06:52:43;;;;;;;4.53;3.13;;;12.70;99.90;;;;;;4947241;28;20034;-69
2023/05/04 06:55:10;;;;;;;6.13;4.40;;;12.80;99.90;;;;;;4959765;28;20544;-70
2023/05/04 06:57:36;;;;;;;6.18;3.75;;;12.80;99.90;;;;;;4958565;28;20034;-70
2023/05/04 07:00:03;;;;;;;4.82;3.40;;;12.90;99.90;;;;;;4955338;28;21043;-69
2023/05/04 07:02:30;;;;;;;4.07;3.00;;;12.90;99.90;;;;;;4937153;28;20485;-70
2023/05/04 07:04:56;;;;;;;6.13;3.22;;;12.90;99.90;;;;;;4949588;28;20578;-70
2023/05/04 07:07:23;;;;;;;6.75;3.20;;;13.10;99.90;;;;;;4953411;28;20030;-69
2023/05/04 07:09:49;;;;;;;6.10;3.38;;;13.10;99.90;;;;;;4949184;28;20034;-69
2023/05/04 07:12:16;;;;;;;4.65;3.22;;;13.10;99.90;;;;;;4932548;28;20073;-70
2023/05/04 07:14:43;;;;;;;6.28;3.13;;;13.20;99.90;;;;;;4948762;28;20035;-69
2023/05/04 07:17:09;;;;;;;4.88;3.60;;;13.30;99.90;;;;;;4955549;28;20513;-70
2023/05/04 07:19:35;;;;;;;4.32;3.03;;;13.30;99.90;;;;;;4954383;28;20038;-69
2023/05/04 07:22:02;;;;;;;6.18;4.03;;;13.40;99.90;;;;;;4955399;28;20164;-69
2023/05/04 07:24:29;;;;;;;7.35;3.65;;;13.40;99.90;;;;;;4961418;28;20101;-69
2023/05/04 07:26:56;;;;;;;4.75;2.60;;;13.40;99.90;;;;;;4951486;28;20061;-70
2023/05/04 07:29:22;;;;;;;5.78;3.30;;;13.50;99.90;;;;;;4952270;28;20413;-69
2023/05/04 07:31:48;;;;;;;4.80;3.83;;;13.50;99.90;;;;;;4952692;28;21523;-70
2023/05/04 07:34:15;;;;;;;9.13;4.72;;;13.60;99.90;;;;;;4946824;28;20034;-70
2023/05/04 07:36:41;;;;;;;5.70;4.07;;;13.70;99.90;;;;;;4952988;28;20425;-69
2023/05/04 07:39:07;;;;;;;4.15;2.78;;;13.80;99.90;;;;;;4976351;28;20041;-69
2023/05/04 07:41:33;;;;;;;6.93;3.42;;;13.90;99.90;;;;;;4938115;28;20452;-69
2023/05/04 07:44:04;;;;;;;5.75;2.95;;;14.10;99.90;;;;;;4957452;28;22165;-70
2023/05/04 07:46:30;;;;;;;4.90;3.15;;;14.30;99.90;;;;;;4954474;28;20038;-70
2023/05/04 07:48:56;;;;;;;6.65;3.95;;;14.40;99.60;;;;;;4955791;28;20493;-69
2023/05/04 07:51:23;;;;;;;11.48;4.50;;;14.50;99.20;;;;;;4948578;28;20136;-68
2023/05/04 07:53:49;;;;;;;6.80;3.90;;;14.60;98.80;;;;;;4948764;28;20386;-69
2023/05/04 07:56:15;;;;;;;5.95;4.18;;;14.70;98.30;;;;;;4948284;28;20389;-70
2023/05/04 07:58:42;;;;;;;6.18;3.60;;;14.70;98.00;;;;;;4950648;28;20042;-68
2023/05/04 08:01:08;;;;;;;3.03;2.38;;;14.80;98.10;;;;;;4950956;28;20044;-69
2023/05/04 08:03:34;;;;;;;6.85;2.83;;;14.90;98.10;;;;;;4922210;28;20042;-69
2023/05/04 08:06:00;;;;;;;5.07;3.75;;;14.90;98.00;;;;;;4958470;28;20038;-69
2023/05/04 08:08:27;;;;;;;5.72;3.53;;;15.10;97.80;;;;;;4956381;28;20030;-69
2023/05/04 08:10:53;;;;;;;4.57;3.47;;;15.10;97.60;;;;;;4947191;28;20065;-68
2023/05/04 08:13:20;;;;;;;6.00;4.13;;;15.20;97.70;;;;;;4961817;28;21292;-68
2023/05/04 08:15:46;;;;;;;6.68;3.78;;;15.30;97.40;;;;;;4949377;28;20497;-69
2023/05/04 08:18:12;;;;;;;5.45;3.95;;;15.40;97.30;;;;;;4952350;28;20426;-68
2023/05/04 08:20:38;;;;;;;8.65;4.95;;;15.40;97.00;;;;;;4966339;28;20054;-68
2023/05/04 08:23:06;;;;;;;7.47;3.92;;;15.60;96.60;;;;;;4951861;28;20057;-69
2023/05/04 08:25:32;;;;;;;4.13;2.47;;;15.90;96.60;;;;;;4960615;28;20038;-69
2023/05/04 08:27:58;;;;;;;5.03;2.95;;;16.10;96.40;;;;;;4959152;28;20542;-69
2023/05/04 08:30:25;;;;;;;8.35;4.85;;;16.30;95.60;;;;;;4949704;28;20037;-69
2023/05/04 08:32:54;;;;;;;8.13;3.78;;;16.40;95.10;;;;;;4948094;28;20049;-69
2023/05/04 08:35:24;;;;;;;6.15;3.40;;;16.50;94.60;;;;;;4953591;28;20045;-68
2023/05/04 08:37:51;;;;;;;3.50;2.35;;;16.50;94.80;;;;;;4967208;28;20030;-68
2023/05/04 08:40:18;;;;;;;5.82;3.63;;;16.50;94.70;;;;;;4948943;28;20038;-69
2023/05/04 08:42:49;;;;;;;5.03;3.13;;;16.70;94.50;;;;;;4967508;28;20409;-69
2023/05/04 08:45:16;;;;;;;6.55;2.88;;;16.80;94.10;;;;;;4953117;28;20050;-68
2023/05/04 08:47:43;;;;;;;4.50;3.33;;;16.90;93.70;;;;;;4975663;28;20500;-69
2023/05/04 08:50:10;;;;;;;6.32;3.28;;;16.90;94.00;;;;;;4942617;28;20033;-70
2023/05/04 08:52:41;;;;;;;6.15;3.40;;;17.10;93.80;;;;;;4955441;28;20030;-68
2023/05/04 08:55:10;;;;;;;6.22;3.30;;;17.30;92.90;;;;;;4951224;28;20279;-69
2023/05/04 08:57:37;;;;;;;7.68;3.25;;;17.40;92.50;;;;;;4949747;28;20037;-69
2023/05/04 09:00:05;;;;;;;4.13;3.25;;;17.50;92.30;;;;;;4948357;28;20043;-68
2023/05/04 09:02:32;;;;;;;4.68;2.97;;;17.50;91.80;;;;;;4951936;28;20477;-69
2023/05/04 09:05:00;;;;;;;4.80;3.10;;;17.50;91.90;;;;;;4949777;28;20042;-70
2023/05/04 09:07:27;;;;;;;5.82;2.47;;;17.60;91.80;;;;;;4951827;28;20062;-69
2023/05/04 09:09:53;;;;;;;6.22;2.20;;;17.80;91.70;;;;;;4956641;28;20030;-69
2023/05/04 09:12:20;;;;;;;4.07;2.83;;;17.80;91.30;;;;;;4975309;28;20054;-70
2023/05/04 09:14:46;;;;;;;5.70;3.17;;;17.90;91.10;;;;;;4954511;28;20038;-69
2023/05/04 09:17:16;;;;;;;3.47;1.75;;;17.90;91.00;;;;;;4954222;28;20643;-69
2023/05/04 09:19:43;;;;;;;9.35;3.42;;;18.00;91.10;;;;;;4952599;28;20373;-69
2023/05/04 09:22:18;;;;;;;6.90;3.63;;;18.10;91.00;;;;;;4951376;28;20497;-69
2023/05/04 09:24:45;;;;;;;5.03;2.75;;;18.20;90.40;;;;;;4934243;28;20457;-69
2023/05/04 09:27:12;;;;;;;6.40;3.17;;;18.30;90.40;;;;;;4952930;28;20034;-68
2023/05/04 09:29:41;;;;;;;3.63;2.20;;;18.40;90.30;;;;;;4938080;28;20307;-69
2023/05/04 09:32:14;;;;;;;4.70;2.63;;;18.50;90.50;;;;;;4962150;28;20031;-68
2023/05/04 09:34:51;;;;;;;6.38;2.75;;;18.60;90.30;;;;;;4958382;28;20049;-69
2023/05/04 09:37:21;;;;;;;4.88;2.97;;;18.70;90.20;;;;;;4970632;28;20034;-69
2023/05/04 09:39:54;;;;;;;4.40;2.22;;;18.80;90.20;;;;;;4953979;28;20742;-69
2023/05/04 09:42:22;;;;;;;6.35;4.03;;;18.90;90.20;;;;;;4953671;28;20035;-70
2023/05/04 09:45:08;;;;;;;5.38;3.63;;;19.00;90.00;;;;;;4950933;28;20580;-68
2023/05/04 09:47:36;;;;;;;5.78;3.50;;;19.00;88.70;;;;;;4956092;28;20045;-68
2023/05/04 09:50:13;;;;;;;8.70;4.05;;;18.90;88.50;;;;;;4954983;28;20042;-67
2023/05/04 09:52:41;;;;;;;5.68;3.05;;;18.90;89.10;;;;;;4958754;28;20614;-68
2023/05/04 09:55:11;;;;;;;7.50;5.30;;;19.00;89.00;;;;;;4979586;28;20041;-69
2023/05/04 09:57:41;;;;;;;7.28;4.35;;;19.00;88.50;;;;;;4980638;28;20076;-67
2023/05/04 10:00:10;;;;;;;6.82;3.80;;;19.10;88.50;;;;;;4958226;28;20053;-67
2023/05/04 10:02:36;;;;;;;8.25;3.90;;;19.10;88.70;;;;;;4953340;28;20074;-68
2023/05/04 10:05:05;;;;;;;13.43;5.55;;;19.20;88.70;;;;;;4952637;28;20274;-68
2023/05/04 10:07:32;;;;;;;8.60;4.25;;;19.40;88.30;;;;;;4954457;28;20046;-68
2023/05/04 10:09:59;;;;;;;5.28;2.90;;;19.50;87.50;;;;;;4969160;28;20035;-68
2023/05/04 10:12:25;;;;;;;6.28;3.47;;;19.60;87.60;;;;;;4954711;28;20058;-68
2023/05/04 10:14:52;;;;;;;6.55;3.10;;;19.70;87.10;;;;;;4953401;28;20425;-69
2023/05/04 10:17:32;;;;;;;4.82;3.17;;;19.80;86.40;;;;;;4960602;28;20042;-70
2023/05/04 10:20:42;;;;;;;5.07;2.58;;;20.00;86.00;;;;;;4958426;28;20761;-69
2023/05/04 10:23:45;;;;;;;5.85;4.10;;;20.20;86.20;;;;;;4955088;28;20074;-68
2023/05/04 10:26:30;;;;;;;5.57;3.22;;;20.30;85.20;;;;;;4954709;28;20117;-67
2023/05/04 10:29:15;;;;;;;7.47;3.33;;;20.50;84.70;;;;;;4938453;28;20035;-68
2023/05/04 10:31:42;;;;;;;5.68;3.70;;;20.80;84.40;;;;;;4967416;28;20069;-67
2023/05/04 10:34:10;;;;;;;7.63;4.90;;;21.10;83.30;;;;;;4952079;28;20045;-68
2023/05/04 10:36:37;;;;;;;8.18;5.78;;;21.30;82.00;;;;;;4951956;28;20393;-68
2023/05/04 10:39:31;;;;;;;8.77;6.03;;;21.50;80.30;;;;;;4959530;28;21028;-68
2023/05/04 10:42:06;;;;;;;6.97;4.00;;;21.80;80.50;;;;;;4958688;28;20039;-69
2023/05/04 10:44:48;;;;;;;6.97;2.88;;;22.10;78.90;;;;;;4954853;28;20042;-68
2023/05/04 10:47:14;;;;;;;4.53;2.80;;;22.50;78.80;;;;;;4970004;28;20171;-68
2023/05/04 10:49:41;;;;;;;5.53;2.72;;;22.90;77.60;;;;;;4932951;28;20077;-68
2023/05/04 10:52:10;;;;;;;4.78;3.25;;;23.40;76.40;;;;;;4953570;28;20034;-68
2023/05/04 10:54:38;;;;;;;8.75;4.30;;;23.70;73.40;;;;;;4950192;28;20356;-68
2023/05/04 10:57:06;;;;;;;4.90;3.22;;;23.90;71.90;;;;;;4949846;28;20402;-68
2023/05/04 10:59:33;;;;;;;8.93;3.33;;;24.10;70.40;;;;;;4958008;28;20042;-68
2023/05/04 11:02:03;;;;;;;5.93;3.50;;;24.30;69.40;;;;;;4956408;28;20038;-69
2023/05/04 11:04:31;;;;;;;5.35;3.20;;;24.40;68.10;;;;;;4958963;28;20034;-69
2023/05/04 11:06:58;;;;;;;11.05;3.55;;;24.50;67.60;;;;;;4973088;28;20026;-69
2023/05/04 11:09:26;;;;;;;4.82;3.58;;;24.70;67.00;;;;;;4952455;28;20034;-68
2023/05/04 11:11:54;;;;;;;7.50;3.92;;;25.00;66.80;;;;;;4948456;28;20496;-69
2023/05/04 11:14:25;;;;;;;6.97;3.60;;;25.20;65.40;;;;;;4949215;28;20693;-69
2023/05/04 11:17:09;;;;;;;4.82;2.75;;;25.30;64.80;;;;;;4966775;28;20473;-69
2023/05/04 11:19:49;;;;;;;8.88;4.18;;;25.70;65.40;;;;;;4949205;28;20046;-69
2023/05/04 11:22:16;;;;;;;5.70;2.80;;;26.20;63.30;;;;;;4954640;28;20046;-69
2023/05/04 11:24:44;;;;;;;6.93;3.53;;;26.30;62.70;;;;;;4972269;28;20045;-70
2023/05/04 11:27:24;;;;;;;8.30;3.80;;;26.60;61.30;;;;;;4941117;28;20019;-69
2023/05/04 11:30:03;;;;;;;5.40;4.00;;;26.80;60.80;;;;;;4947071;28;20038;-69
2023/05/04 11:32:36;;;;;;;5.40;2.83;;;26.80;59.70;;;;;;4949535;28;20053;-69
2023/05/04 11:35:06;;;;;;;5.18;3.28;;;26.90;60.20;;;;;;4953211;28;20038;-69
2023/05/04 11:37:43;;;;;;;6.30;2.55;;;27.10;58.60;;;;;;4950928;28;20377;-69
2023/05/04 11:40:23;;;;;;;6.68;3.72;;;27.20;59.00;;;;;;4949650;28;20477;-69
2023/05/04 11:42:51;;;;;;;7.40;3.55;;;27.50;57.60;;;;;;4953945;28;20225;-69
2023/05/04 11:45:18;;;;;;;7.38;4.45;;;27.70;57.20;;;;;;4959219;28;20038;-70
2023/05/04 11:47:46;;;;;;;4.18;3.10;;;27.70;56.10;;;;;;4959848;28;20786;-69
2023/05/04 11:50:14;;;;;;;5.18;3.40;;;27.80;56.00;;;;;;4954047;28;20041;-69
2023/05/04 11:52:42;;;;;;;5.50;3.35;;;28.10;56.40;;;;;;4950790;28;20042;-69
2023/05/04 11:55:10;;;;;;;5.15;3.30;;;28.70;55.90;;;;;;4967083;28;20063;-69
2023/05/04 11:57:36;;;;;;;6.57;4.15;;;29.10;55.90;;;;;;4953744;28;20030;-69
2023/05/04 12:00:07;;;;;;;4.13;3.10;;;29.60;53.80;;;;;;4950561;28;20049;-70
2023/05/04 12:02:34;;;;;;;6.60;3.33;;;29.60;53.30;;;;;;4954321;28;20564;-70
2023/05/04 12:05:02;;;;;;;6.18;3.63;;;29.60;52.90;;;;;;4953480;28;20050;-69
2023/05/04 12:07:28;;;;;;;5.93;2.80;;;29.70;52.90;;;;;;4960464;28;20049;-69
2023/05/04 12:09:54;;;;;;;6.47;4.68;;;29.90;52.20;;;;;;4954446;28;20037;-69
2023/05/04 12:12:20;;;;;;;5.63;3.15;;;29.80;50.80;;;;;;4939333;28;20069;-70
2023/05/04 12:14:51;;;;;;;4.97;3.45;;;29.70;50.70;;;;;;4953437;28;20054;-69
2023/05/04 12:17:19;;;;;;;4.80;2.90;;;29.40;51.20;;;;;;4950008;28;20045;-69
2023/05/04 12:19:47;;;;;;;5.25;3.92;;;29.50;51.40;;;;;;4950150;28;20046;-70
2023/05/04 12:22:13;;;;;;;5.38;3.90;;;29.80;50.60;;;;;;4953205;28;20450;-70
2023/05/04 12:24:39;;;;;;;5.40;3.50;;;30.20;50.10;;;;;;4948954;28;20409;-70
2023/05/04 12:27:12;;;;;;;7.70;5.50;;;30.50;49.60;;;;;;4953466;28;20045;-70
2023/05/04 12:29:39;;;;;;;6.38;4.45;;;31.00;48.50;;;;;;4956098;28;20042;-69
2023/05/04 12:32:05;;;;;;;7.72;3.55;;;31.10;47.60;;;;;;4959407;28;20034;-69
2023/05/04 12:34:32;;;;;;;5.88;4.05;;;31.20;47.90;;;;;;4954830;28;20038;-70
2023/05/04 12:36:58;;;;;;;7.85;4.13;;;31.20;47.30;;;;;;4950312;28;20642;-70
2023/05/04 12:39:25;;;;;;;7.07;4.35;;;31.40;47.60;;;;;;4951151;28;20061;-69
2023/05/04 12:41:52;;;;;;;5.32;3.25;;;31.60;46.30;;;;;;4949608;28;20532;-70
2023/05/04 12:44:18;;;;;;;14.18;9.48;;;31.80;46.60;;;;;;4949478;28;20520;-70
2023/05/04 12:46:45;;;;;;;4.13;3.25;;;32.00;45.50;;;;;;4951158;28;20049;-69
2023/05/04 12:49:13;;;;;;;4.88;3.60;;;31.80;45.10;;;;;;4952424;28;20049;-70
2023/05/04 12:51:39;;;;;;;4.88;3.33;;;31.70;45.00;;;;;;4954597;28;20050;-70
2023/05/04 12:54:06;;;;;;;5.72;3.15;;;31.60;45.00;;;;;;4955150;28;20655;-69